createdAt,value
2017-11-23T00:00:28.017Z,22.37
2017-11-23T00:02:31.298Z,22.37
2017-11-23T00:04:34.616Z,22.37
2017-11-23T00:06:37.998Z,22.37
2017-11-23T00:08:41.289Z,22.37
2017-11-23T00:10:44.577Z,22.37
2017-11-23T00:12:47.885Z,22.36
2017-11-23T00:14:51.166Z,22.36
2017-11-23T00:16:54.554Z,22.36
2017-11-23T00:18:57.944Z,22.36
2017-11-23T00:21:01.437Z,22.35
2017-11-23T00:23:04.725Z,22.35
2017-11-23T00:25:08.126Z,22.35
2017-11-23T00:27:11.450Z,22.35
2017-11-23T00:29:14.738Z,22.34
2017-11-23T00:31:18.059Z,22.35
2017-11-23T00:33:21.344Z,22.34
2017-11-23T00:35:24.637Z,22.34
2017-11-23T00:37:27.950Z,22.33
2017-11-23T00:39:31.282Z,22.34
2017-11-23T00:41:34.556Z,22.34
2017-11-23T00:43:37.874Z,22.34
2017-11-23T00:45:41.219Z,22.34
2017-11-23T00:47:44.502Z,22.34
2017-11-23T00:49:47.897Z,22.34
2017-11-23T00:51:51.181Z,22.34
2017-11-23T00:53:54.465Z,22.34
2017-11-23T00:55:57.870Z,22.33
2017-11-23T00:58:01.261Z,22.33
2017-11-23T01:00:04.655Z,22.33
2017-11-23T01:02:07.966Z,22.32
2017-11-23T01:04:11.333Z,22.32
2017-11-23T01:06:14.625Z,22.33
2017-11-23T01:08:17.930Z,22.32
2017-11-23T01:10:21.326Z,22.32
2017-11-23T01:12:24.605Z,22.32
2017-11-23T01:14:27.988Z,22.32
2017-11-23T01:16:31.377Z,22.32
2017-11-23T01:18:34.661Z,22.32
2017-11-23T01:20:38.057Z,22.32
2017-11-23T01:22:41.454Z,22.31
2017-11-23T01:24:44.742Z,22.31
2017-11-23T01:26:48.041Z,22.31
2017-11-23T01:28:51.422Z,22.31
2017-11-23T01:30:54.813Z,22.32
2017-11-23T01:32:58.206Z,22.31
2017-11-23T01:35:01.633Z,22.31
2017-11-23T01:37:07.848Z,22.31
2017-11-23T01:39:11.153Z,22.30
2017-11-23T01:41:14.445Z,22.31
2017-11-23T01:43:17.734Z,22.31
2017-11-23T01:45:21.058Z,22.30
2017-11-23T01:47:24.330Z,22.31
2017-11-23T01:49:27.628Z,22.30
2017-11-23T01:51:30.942Z,22.31
2017-11-23T01:53:34.235Z,22.31
2017-11-23T01:55:37.590Z,22.30
2017-11-23T01:57:40.957Z,22.30
2017-11-23T01:59:44.246Z,22.30
2017-11-23T02:01:47.538Z,22.30
2017-11-23T02:03:50.845Z,22.30
2017-11-23T02:05:54.129Z,22.29
2017-11-23T02:07:57.418Z,22.29
2017-11-23T02:10:00.778Z,22.29
2017-11-23T02:12:04.070Z,22.29
2017-11-23T02:14:07.364Z,22.29
2017-11-23T02:16:10.673Z,22.28
2017-11-23T02:18:13.956Z,22.29
2017-11-23T02:20:17.254Z,22.28
2017-11-23T02:22:20.578Z,22.28
2017-11-23T02:24:23.988Z,22.28
2017-11-23T02:26:27.266Z,22.28
2017-11-23T02:28:30.574Z,22.28
2017-11-23T02:30:33.869Z,22.28
2017-11-23T02:32:37.171Z,22.28
2017-11-23T02:34:40.486Z,22.28
2017-11-23T02:36:43.785Z,22.28
2017-11-23T02:38:47.065Z,22.28
2017-11-23T02:40:50.366Z,22.28
2017-11-23T02:42:53.673Z,22.29
2017-11-23T02:44:56.945Z,22.28
2017-11-23T02:47:00.314Z,22.28
2017-11-23T02:49:03.676Z,22.28
2017-11-23T02:51:06.954Z,22.29
2017-11-23T02:53:10.283Z,22.28
2017-11-23T02:55:13.569Z,22.28
2017-11-23T02:57:16.849Z,22.28
2017-11-23T02:59:20.156Z,22.28
2017-11-23T03:01:23.444Z,22.28
2017-11-23T03:03:26.721Z,22.28
2017-11-23T03:05:30.114Z,22.28
2017-11-23T03:07:33.433Z,22.27
2017-11-23T03:09:36.797Z,22.28
2017-11-23T03:11:40.176Z,22.27
2017-11-23T03:13:43.460Z,22.28
2017-11-23T03:15:46.773Z,22.27
2017-11-23T03:17:50.085Z,22.28
2017-11-23T03:19:53.378Z,22.28
2017-11-23T03:21:56.747Z,22.27
2017-11-23T03:24:00.061Z,22.28
2017-11-23T03:26:03.490Z,22.28
2017-11-23T03:28:06.782Z,22.27
2017-11-23T03:30:10.103Z,22.27
2017-11-23T03:32:13.388Z,22.27
2017-11-23T03:34:16.678Z,22.27
2017-11-23T03:36:19.986Z,22.27
2017-11-23T03:38:23.361Z,22.27
2017-11-23T03:40:26.762Z,22.27
2017-11-23T03:42:30.061Z,22.27
2017-11-23T03:44:33.354Z,22.26
2017-11-23T03:46:37.447Z,22.26
2017-11-23T03:48:40.749Z,22.26
2017-11-23T03:50:44.085Z,22.27
2017-11-23T03:52:47.371Z,22.27
2017-11-23T03:54:50.680Z,22.27
2017-11-23T03:56:53.989Z,22.26
2017-11-23T03:58:57.333Z,22.27
2017-11-23T04:01:00.641Z,22.27
2017-11-23T04:03:03.961Z,22.27
2017-11-23T04:05:07.271Z,22.27
2017-11-23T04:07:10.608Z,22.27
2017-11-23T04:09:13.870Z,22.27
2017-11-23T04:11:17.164Z,22.26
2017-11-23T04:13:20.517Z,22.27
2017-11-23T04:15:23.910Z,22.27
2017-11-23T04:17:27.185Z,22.27
2017-11-23T04:19:30.493Z,22.26
2017-11-23T04:21:33.776Z,22.26
2017-11-23T04:23:37.056Z,22.26
2017-11-23T04:25:40.365Z,22.27
2017-11-23T04:27:45.139Z,22.26
2017-11-23T04:29:48.432Z,22.26
2017-11-23T04:31:51.753Z,22.25
2017-11-23T04:33:55.037Z,22.26
2017-11-23T04:35:58.322Z,22.26
2017-11-23T04:38:01.621Z,22.26
2017-11-23T04:40:05.013Z,22.26
2017-11-23T04:42:08.298Z,22.26
2017-11-23T04:44:11.694Z,22.25
2017-11-23T04:46:14.985Z,22.26
2017-11-23T04:48:18.353Z,22.26
2017-11-23T04:50:21.681Z,22.26
2017-11-23T04:52:24.945Z,22.26
2017-11-23T04:54:28.274Z,22.26
2017-11-23T04:56:31.658Z,22.26
2017-11-23T04:58:34.921Z,22.25
2017-11-23T05:00:38.313Z,22.26
2017-11-23T05:02:41.713Z,22.25
2017-11-23T05:04:44.997Z,22.25
2017-11-23T05:06:48.385Z,22.25
2017-11-23T05:08:51.701Z,22.26
2017-11-23T05:10:54.989Z,22.26
2017-11-23T05:12:58.269Z,22.26
2017-11-23T05:15:01.568Z,22.25
2017-11-23T05:17:04.902Z,22.25
2017-11-23T05:19:08.161Z,22.25
2017-11-23T05:21:11.471Z,22.24
2017-11-23T05:23:14.753Z,22.25
2017-11-23T05:25:18.052Z,22.25
2017-11-23T05:27:21.379Z,22.25
2017-11-23T05:29:25.085Z,22.24
2017-11-23T05:31:28.370Z,22.24
2017-11-23T05:33:31.693Z,22.25
2017-11-23T05:35:34.996Z,22.25
2017-11-23T05:37:38.342Z,22.25
2017-11-23T05:39:41.698Z,22.25
2017-11-23T05:41:44.980Z,22.25
2017-11-23T05:43:48.269Z,22.25
2017-11-23T05:45:51.604Z,22.25
2017-11-23T05:47:54.889Z,22.25
2017-11-23T05:49:58.249Z,22.25
2017-11-23T05:52:01.541Z,22.25
2017-11-23T05:54:04.816Z,22.25
2017-11-23T05:56:08.160Z,22.25
2017-11-23T05:58:11.501Z,22.25
2017-11-23T06:00:14.801Z,22.25
2017-11-23T06:02:18.085Z,22.25
2017-11-23T06:04:21.407Z,22.25
2017-11-23T06:06:24.695Z,22.24
2017-11-23T06:08:27.986Z,22.24
2017-11-23T06:10:31.305Z,22.24
2017-11-23T06:12:34.593Z,22.24
2017-11-23T06:14:37.906Z,22.24
2017-11-23T06:16:41.375Z,22.24
2017-11-23T06:18:44.744Z,22.25
2017-11-23T06:20:48.032Z,22.24
2017-11-23T06:22:51.421Z,22.25
2017-11-23T06:24:54.706Z,22.24
2017-11-23T06:26:57.994Z,22.25
2017-11-23T06:29:01.301Z,22.24
2017-11-23T06:31:04.697Z,22.25
2017-11-23T06:33:08.076Z,22.24
2017-11-23T06:35:12.426Z,22.25
2017-11-23T06:37:15.741Z,22.25
2017-11-23T06:39:19.028Z,22.24
2017-11-23T06:41:22.467Z,22.25
2017-11-23T06:43:25.865Z,22.25
2017-11-23T06:45:29.217Z,22.25
2017-11-23T06:47:32.530Z,22.25
2017-11-23T06:49:35.809Z,22.25
2017-11-23T06:51:39.093Z,22.25
2017-11-23T06:53:42.406Z,22.25
2017-11-23T06:55:46.405Z,22.26
2017-11-23T06:57:49.693Z,22.26
2017-11-23T06:59:53.004Z,22.26
2017-11-23T07:01:56.309Z,22.26
2017-11-23T07:03:59.680Z,22.26
2017-11-23T07:06:03.049Z,22.26
2017-11-23T07:08:06.322Z,22.27
2017-11-23T07:10:09.638Z,22.27
2017-11-23T07:12:12.985Z,22.26
2017-11-23T07:14:16.284Z,22.27
2017-11-23T07:16:19.727Z,22.27
2017-11-23T07:18:23.121Z,22.27
2017-11-23T07:20:26.413Z,22.27
2017-11-23T07:22:30.608Z,22.26
2017-11-23T07:24:33.997Z,22.26
2017-11-23T07:26:37.288Z,22.25
2017-11-23T07:28:40.573Z,22.25
2017-11-23T07:30:43.914Z,22.25
2017-11-23T07:32:47.322Z,22.24
2017-11-23T07:34:50.630Z,22.24
2017-11-23T07:36:54.045Z,22.25
2017-11-23T07:38:57.372Z,22.25
2017-11-23T07:41:00.664Z,22.26
2017-11-23T07:43:04.044Z,22.26
2017-11-23T07:45:07.331Z,22.27
2017-11-23T07:47:10.636Z,22.27
2017-11-23T07:49:13.959Z,22.26
2017-11-23T07:51:17.259Z,22.27
2017-11-23T07:53:20.589Z,22.27
2017-11-23T07:55:23.933Z,22.27
2017-11-23T07:57:28.596Z,22.28
2017-11-23T07:59:31.999Z,22.27
2017-11-23T08:01:35.358Z,22.26
2017-11-23T08:03:38.677Z,22.26
2017-11-23T08:05:43.261Z,22.27
2017-11-23T08:07:46.661Z,22.26
2017-11-23T08:09:49.945Z,22.26
2017-11-23T08:11:53.241Z,22.26
2017-11-23T08:13:56.632Z,22.25
2017-11-23T08:16:00.025Z,22.26
2017-11-23T08:18:03.313Z,22.26
2017-11-23T08:20:07.897Z,22.26
2017-11-23T08:22:11.181Z,22.26
2017-11-23T08:24:14.510Z,22.26
2017-11-23T08:26:17.833Z,22.26
2017-11-23T08:28:21.192Z,22.25
2017-11-23T08:30:24.589Z,22.25
2017-11-23T08:32:27.890Z,22.24
2017-11-23T08:34:31.333Z,22.24
2017-11-23T08:36:34.829Z,22.24
2017-11-23T08:38:38.190Z,22.24
2017-11-23T08:40:41.486Z,22.23
2017-11-23T08:42:44.869Z,22.22
2017-11-23T08:44:48.225Z,22.22
2017-11-23T08:46:51.514Z,22.22
2017-11-23T08:48:54.850Z,22.21
2017-11-23T08:50:58.163Z,22.20
2017-11-23T08:53:01.486Z,22.20
2017-11-23T08:55:04.897Z,22.21
2017-11-23T08:57:08.654Z,22.20
2017-11-23T08:59:11.941Z,22.22
2017-11-23T09:01:19.264Z,22.22
2017-11-23T09:03:22.537Z,22.23
2017-11-23T09:05:29.842Z,22.22
2017-11-23T09:07:33.218Z,22.24
2017-11-23T09:09:36.606Z,22.23
2017-11-23T09:11:39.898Z,22.24
2017-11-23T09:13:43.193Z,22.24
2017-11-23T09:15:46.521Z,22.24
2017-11-23T09:17:49.833Z,22.25
2017-11-23T09:19:53.270Z,22.25
2017-11-23T09:21:56.580Z,22.26
2017-11-23T09:24:00.821Z,22.28
2017-11-23T09:26:04.230Z,22.29
2017-11-23T09:28:07.537Z,22.31
2017-11-23T09:30:10.829Z,22.32
2017-11-23T09:32:14.226Z,22.35
2017-11-23T09:34:17.617Z,22.37
2017-11-23T09:36:21.175Z,22.39
2017-11-23T09:38:24.462Z,22.40
2017-11-23T09:40:27.798Z,22.42
2017-11-23T09:42:31.185Z,22.45
2017-11-23T09:44:35.467Z,22.47
2017-11-23T09:46:38.797Z,22.49
2017-11-23T09:48:42.186Z,22.52
2017-11-23T09:50:45.488Z,22.54
2017-11-23T09:52:48.810Z,22.54
2017-11-23T09:54:52.162Z,22.57
2017-11-23T09:56:55.478Z,22.59
2017-11-23T09:58:58.803Z,22.61
2017-11-23T10:01:02.131Z,22.63
2017-11-23T10:03:05.500Z,22.64
2017-11-23T10:05:08.905Z,22.67
2017-11-23T10:07:12.194Z,22.68
2017-11-23T10:09:15.486Z,22.71
2017-11-23T10:11:18.869Z,22.72
2017-11-23T10:13:22.165Z,22.74
2017-11-23T10:15:25.520Z,22.76
2017-11-23T10:17:28.852Z,22.78
2017-11-23T10:19:32.228Z,22.80
2017-11-23T10:21:35.526Z,22.81
2017-11-23T10:23:38.913Z,22.83
2017-11-23T10:25:42.276Z,22.85
2017-11-23T10:27:45.601Z,22.86
2017-11-23T10:29:48.912Z,22.87
2017-11-23T10:31:52.203Z,22.89
2017-11-23T10:33:55.578Z,22.90
2017-11-23T10:35:58.914Z,22.90
2017-11-23T10:38:02.334Z,22.91
2017-11-23T10:40:05.607Z,22.92
2017-11-23T10:42:08.934Z,22.93
2017-11-23T10:44:12.261Z,22.94
2017-11-23T10:46:15.554Z,22.95
2017-11-23T10:48:30.902Z,22.97
2017-11-23T10:50:34.201Z,22.98
2017-11-23T10:52:37.582Z,23.00
2017-11-23T10:54:40.965Z,23.01
2017-11-23T10:56:44.261Z,23.02
2017-11-23T10:58:47.549Z,23.03
2017-11-23T11:00:50.859Z,23.04
2017-11-23T11:02:54.209Z,23.05
2017-11-23T11:04:57.497Z,23.06
2017-11-23T11:07:00.856Z,23.08
2017-11-23T11:09:04.123Z,23.09
2017-11-23T11:11:07.476Z,23.10
2017-11-23T11:13:10.869Z,23.12
2017-11-23T11:15:14.188Z,23.14
2017-11-23T11:17:17.480Z,23.15
2017-11-23T11:19:21.693Z,23.17
2017-11-23T11:21:25.089Z,23.18
2017-11-23T11:23:28.373Z,23.19
2017-11-23T11:25:32.367Z,23.20
2017-11-23T11:27:35.709Z,23.21
2017-11-23T11:29:39.093Z,23.22
2017-11-23T11:31:42.426Z,23.23
2017-11-23T11:33:45.812Z,23.24
2017-11-23T11:35:49.128Z,23.25
2017-11-23T11:37:52.442Z,23.26
2017-11-23T11:39:56.065Z,23.28
2017-11-23T11:41:59.434Z,23.28
2017-11-23T11:44:02.993Z,23.29
2017-11-23T11:46:07.226Z,23.30
2017-11-23T11:48:10.569Z,23.29
2017-11-23T11:50:13.964Z,23.29
2017-11-23T11:52:17.465Z,23.30
2017-11-23T11:54:20.790Z,23.30
2017-11-23T11:56:24.101Z,23.31
2017-11-23T11:58:27.403Z,23.31
2017-11-23T12:00:30.720Z,23.31
2017-11-23T12:02:34.033Z,23.31
2017-11-23T12:04:37.428Z,23.31
2017-11-23T12:06:40.716Z,23.32
2017-11-23T12:08:44.046Z,23.32
2017-11-23T12:10:47.370Z,23.32
2017-11-23T12:12:50.681Z,23.33
2017-11-23T12:15:05.729Z,23.32
2017-11-23T12:20:06.871Z,23.31
2017-11-23T12:22:22.019Z,23.31
2017-11-23T12:24:31.705Z,23.31
2017-11-23T12:26:35.078Z,23.32
2017-11-23T12:31:13.470Z,23.33
2017-11-23T12:33:16.780Z,23.33
2017-11-23T12:35:20.083Z,23.34
2017-11-23T12:37:23.369Z,23.36
2017-11-23T12:39:26.780Z,23.36
2017-11-23T12:41:30.223Z,23.37
2017-11-23T12:43:33.507Z,23.38
2017-11-23T12:45:36.809Z,23.40
2017-11-23T12:47:40.097Z,23.39
2017-11-23T12:49:43.414Z,23.39
2017-11-23T12:51:47.027Z,23.39
2017-11-23T12:53:50.606Z,23.39
2017-11-23T12:55:53.977Z,23.39
2017-11-23T12:57:57.315Z,23.38
2017-11-23T13:00:00.861Z,23.39
2017-11-23T13:02:04.292Z,23.39
2017-11-23T13:04:07.783Z,23.39
2017-11-23T13:06:11.081Z,23.40
2017-11-23T13:08:14.446Z,23.41
2017-11-23T13:10:17.859Z,23.42
2017-11-23T13:12:21.153Z,23.43
2017-11-23T13:14:24.450Z,23.43
2017-11-23T13:16:27.785Z,23.44
2017-11-23T13:18:31.115Z,23.44
2017-11-23T13:20:34.460Z,23.44
2017-11-23T13:22:37.800Z,23.44
2017-11-23T13:24:41.148Z,23.44
2017-11-23T13:26:44.483Z,23.44
2017-11-23T13:28:47.853Z,23.44
2017-11-23T13:30:51.172Z,23.44
2017-11-23T13:32:54.558Z,23.44
2017-11-23T13:34:58.003Z,23.44
2017-11-23T13:37:02.118Z,23.44
2017-11-23T13:39:05.524Z,23.43
2017-11-23T13:41:08.849Z,23.42
2017-11-23T13:43:12.212Z,23.43
2017-11-23T13:45:15.512Z,23.42
2017-11-23T13:47:18.820Z,23.43
2017-11-23T13:49:22.121Z,23.42
2017-11-23T13:51:25.445Z,23.42
2017-11-23T13:53:28.757Z,23.42
2017-11-23T13:55:32.072Z,23.42
2017-11-23T13:57:35.369Z,23.42
2017-11-23T13:59:38.679Z,23.40
2017-11-23T14:01:42.086Z,23.40
2017-11-23T14:03:45.421Z,23.40
2017-11-23T14:05:48.810Z,23.40
2017-11-23T14:07:52.164Z,23.39
2017-11-23T14:09:55.438Z,23.40
2017-11-23T14:11:58.781Z,23.40
2017-11-23T14:14:02.239Z,23.39
2017-11-23T14:16:05.637Z,23.40
2017-11-23T14:18:08.966Z,23.40
2017-11-23T14:20:12.397Z,23.39
2017-11-23T14:22:15.704Z,23.38
2017-11-23T14:24:19.023Z,23.38
2017-11-23T14:26:22.338Z,23.38
2017-11-23T14:28:25.674Z,23.38
2017-11-23T14:30:28.987Z,23.37
2017-11-23T14:32:32.290Z,23.37
2017-11-23T14:34:35.683Z,23.36
2017-11-23T14:36:39.012Z,23.37
2017-11-23T14:38:42.313Z,23.35
2017-11-23T14:40:45.617Z,23.36
2017-11-23T14:42:48.950Z,23.36
2017-11-23T14:44:52.257Z,23.35
2017-11-23T14:46:55.560Z,23.36
2017-11-23T14:48:58.911Z,23.36
2017-11-23T14:51:03.705Z,23.35
2017-11-23T14:53:07.028Z,23.35
2017-11-23T14:55:10.375Z,23.35
2017-11-23T14:57:13.689Z,23.34
2017-11-23T14:59:16.989Z,23.33
2017-11-23T15:01:20.310Z,23.33
2017-11-23T15:03:23.885Z,23.32
2017-11-23T15:05:27.341Z,23.32
2017-11-23T15:07:30.683Z,23.31
2017-11-23T15:09:33.970Z,23.31
2017-11-23T15:11:37.329Z,23.31
2017-11-23T15:13:40.646Z,23.31
2017-11-23T15:15:44.025Z,23.29
2017-11-23T15:17:47.388Z,23.29
2017-11-23T15:19:50.809Z,23.29
2017-11-23T15:21:54.207Z,23.29
2017-11-23T15:23:57.594Z,23.29
2017-11-23T15:26:00.954Z,23.28
2017-11-23T15:28:04.266Z,23.28
2017-11-23T15:30:07.569Z,23.28
2017-11-23T15:32:10.920Z,23.27
2017-11-23T15:34:14.210Z,23.27
2017-11-23T15:36:17.554Z,23.26
2017-11-23T15:38:20.891Z,23.26
2017-11-23T15:40:24.186Z,23.25
2017-11-23T15:42:27.573Z,23.25
2017-11-23T15:44:30.917Z,23.24
2017-11-23T15:46:34.212Z,23.23
2017-11-23T15:48:37.495Z,23.23
2017-11-23T15:50:40.885Z,23.22
2017-11-23T15:52:44.181Z,23.21
2017-11-23T15:54:47.520Z,23.21
2017-11-23T15:56:50.954Z,23.21
2017-11-23T15:58:54.347Z,23.20
2017-11-23T16:00:57.637Z,23.20
2017-11-23T16:03:00.997Z,23.20
2017-11-23T16:05:04.411Z,23.19
2017-11-23T16:07:07.860Z,23.18
2017-11-23T16:09:11.191Z,23.18
2017-11-23T16:11:14.659Z,23.17
2017-11-23T16:13:19.003Z,23.17
2017-11-23T16:15:22.456Z,23.16
2017-11-23T16:17:25.729Z,23.15
2017-11-23T16:19:29.268Z,23.14
2017-11-23T16:21:32.585Z,23.13
2017-11-23T16:23:35.878Z,23.12
2017-11-23T16:25:39.318Z,23.11
2017-11-23T16:27:42.621Z,23.10
2017-11-23T16:29:45.912Z,23.09
2017-11-23T16:31:49.209Z,23.08
2017-11-23T16:33:52.533Z,23.09
2017-11-23T16:35:56.544Z,23.09
2017-11-23T16:37:59.970Z,23.08
2017-11-23T16:40:20.362Z,23.08
2017-11-23T16:42:29.514Z,23.08
2017-11-23T16:44:33.259Z,23.07
2017-11-23T16:49:23.185Z,23.07
2017-11-23T16:51:32.204Z,23.07
2017-11-23T16:53:41.104Z,23.06
2017-11-23T16:55:49.869Z,23.05
2017-11-23T16:58:03.087Z,23.05
2017-11-23T17:00:12.095Z,23.05
2017-11-23T17:02:20.919Z,23.05
2017-11-23T17:07:03.355Z,23.04
2017-11-23T17:09:06.665Z,23.04
2017-11-23T17:11:15.543Z,23.04
2017-11-23T17:13:33.591Z,23.04
2017-11-23T17:15:42.495Z,23.03
2017-11-23T17:17:51.410Z,23.03
2017-11-23T17:19:54.737Z,23.02
2017-11-23T17:21:58.933Z,23.02
2017-11-23T17:24:02.232Z,23.02
2017-11-23T17:26:05.551Z,23.02
2017-11-23T17:28:08.841Z,23.02
2017-11-23T17:30:12.139Z,23.03
2017-11-23T17:32:15.454Z,23.02
2017-11-23T17:34:18.788Z,23.02
2017-11-23T17:36:22.082Z,23.02
2017-11-23T17:38:25.434Z,23.02
2017-11-23T17:40:28.757Z,23.02
2017-11-23T17:42:32.048Z,23.02
2017-11-23T17:44:35.385Z,23.01
2017-11-23T17:46:38.731Z,23.01
2017-11-23T17:48:42.089Z,23.01
2017-11-23T17:50:45.401Z,23.00
2017-11-23T17:52:48.700Z,23.00
2017-11-23T17:54:52.004Z,23.00
2017-11-23T17:56:55.401Z,22.99
2017-11-23T17:58:58.775Z,22.99
2017-11-23T18:01:02.162Z,22.99
2017-11-23T18:03:05.481Z,22.99
2017-11-23T18:05:08.914Z,22.99
2017-11-23T18:07:12.318Z,22.98
2017-11-23T18:09:15.641Z,22.98
2017-11-23T18:11:18.949Z,22.97
2017-11-23T18:13:22.275Z,22.97
2017-11-23T18:15:25.600Z,22.97
2017-11-23T18:17:28.866Z,22.96
2017-11-23T18:19:32.194Z,22.96
2017-11-23T18:21:35.537Z,22.96
2017-11-23T18:23:38.874Z,22.96
2017-11-23T18:25:42.178Z,22.96
2017-11-23T18:27:45.557Z,22.96
2017-11-23T18:29:48.924Z,22.96
2017-11-23T18:31:52.223Z,22.96
2017-11-23T18:33:55.598Z,22.95
2017-11-23T18:35:58.972Z,22.95
2017-11-23T18:38:02.254Z,22.95
2017-11-23T18:40:05.577Z,22.95
2017-11-23T18:42:08.879Z,22.95
2017-11-23T18:44:12.163Z,22.95
2017-11-23T18:46:15.475Z,22.96
2017-11-23T18:48:18.768Z,22.95
2017-11-23T18:50:22.140Z,22.95
2017-11-23T18:52:25.466Z,22.95
2017-11-23T18:54:28.818Z,22.95
2017-11-23T18:56:32.147Z,22.94
2017-11-23T18:58:35.503Z,22.94
2017-11-23T19:00:38.801Z,22.94
2017-11-23T19:02:42.090Z,22.94
2017-11-23T19:04:45.405Z,22.94
2017-11-23T19:06:48.709Z,22.93
2017-11-23T19:08:52.213Z,22.92
2017-11-23T19:10:55.530Z,22.93
2017-11-23T19:12:58.900Z,22.92
2017-11-23T19:15:02.182Z,22.92
2017-11-23T19:17:05.509Z,22.92
2017-11-23T19:19:08.809Z,22.91
2017-11-23T19:21:12.098Z,22.91
2017-11-23T19:23:15.511Z,22.91
2017-11-23T19:25:18.836Z,22.90
2017-11-23T19:27:22.160Z,22.90
2017-11-23T19:29:25.477Z,22.90
2017-11-23T19:31:28.769Z,22.90
2017-11-23T19:33:32.142Z,22.90
2017-11-23T19:35:35.630Z,22.88
2017-11-23T19:37:39.029Z,22.88
2017-11-23T19:39:42.325Z,22.88
2017-11-23T19:41:45.659Z,22.87
2017-11-23T19:43:50.334Z,22.87
2017-11-23T19:45:53.676Z,22.87
2017-11-23T19:47:56.982Z,22.87
2017-11-23T19:50:00.279Z,22.86
2017-11-23T19:52:03.610Z,22.86
2017-11-23T19:54:06.988Z,22.86
2017-11-23T19:56:10.363Z,22.85
2017-11-23T19:58:13.777Z,22.84
2017-11-23T20:00:17.097Z,22.84
2017-11-23T20:02:20.405Z,22.84
2017-11-23T20:04:23.709Z,22.83
2017-11-23T20:06:27.028Z,22.83
2017-11-23T20:08:30.403Z,22.82
2017-11-23T20:10:33.860Z,22.82
2017-11-23T20:12:37.184Z,22.81
2017-11-23T20:14:40.496Z,22.81
2017-11-23T20:16:43.792Z,22.80
2017-11-23T20:18:47.233Z,22.80
2017-11-23T20:20:50.620Z,22.80
2017-11-23T20:22:53.900Z,22.79
2017-11-23T20:24:57.236Z,22.80
2017-11-23T20:27:00.629Z,22.79
2017-11-23T20:29:03.919Z,22.78
2017-11-23T20:31:07.229Z,22.78
2017-11-23T20:33:10.529Z,22.78
2017-11-23T20:35:13.823Z,22.77
2017-11-23T20:37:17.129Z,22.77
2017-11-23T20:39:20.438Z,22.76
2017-11-23T20:41:23.762Z,22.76
2017-11-23T20:43:27.130Z,22.76
2017-11-23T20:45:30.438Z,22.76
2017-11-23T20:47:33.825Z,22.75
2017-11-23T20:49:37.143Z,22.74
2017-11-23T20:51:40.475Z,22.74
2017-11-23T20:53:43.773Z,22.73
2017-11-23T20:55:47.187Z,22.73
2017-11-23T20:57:50.491Z,22.73
2017-11-23T20:59:53.782Z,22.72
2017-11-23T21:01:57.098Z,22.73
2017-11-23T21:04:00.408Z,22.72
2017-11-23T21:06:03.711Z,22.72
2017-11-23T21:08:07.137Z,22.72
2017-11-23T21:10:10.433Z,22.72
2017-11-23T21:12:13.941Z,22.71
2017-11-23T21:14:17.249Z,22.71
2017-11-23T21:16:20.550Z,22.71
2017-11-23T21:18:23.842Z,22.71
2017-11-23T21:20:27.511Z,22.70
2017-11-23T21:22:30.802Z,22.70
2017-11-23T21:24:34.106Z,22.70
2017-11-23T21:26:37.621Z,22.70
2017-11-23T21:28:40.905Z,22.70
2017-11-23T21:30:44.233Z,22.69
2017-11-23T21:32:47.548Z,22.70
2017-11-23T21:34:50.921Z,22.69
2017-11-23T21:36:54.340Z,22.68
2017-11-23T21:38:57.699Z,22.67
2017-11-23T21:41:01.089Z,22.67
2017-11-23T21:43:04.402Z,22.66
2017-11-23T21:45:07.713Z,22.66
2017-11-23T21:47:11.026Z,22.66
2017-11-23T21:49:14.352Z,22.66
2017-11-23T21:51:17.680Z,22.66
2017-11-23T21:53:20.970Z,22.66
2017-11-23T21:55:24.268Z,22.66
2017-11-23T21:57:27.591Z,22.65
2017-11-23T21:59:30.972Z,22.65
2017-11-23T22:01:34.255Z,22.65
2017-11-23T22:03:37.583Z,22.65
2017-11-23T22:05:40.889Z,22.64
2017-11-23T22:07:44.331Z,22.65
2017-11-23T22:09:47.638Z,22.64
2017-11-23T22:11:50.948Z,22.64
2017-11-23T22:13:54.442Z,22.64
2017-11-23T22:15:57.806Z,22.64
2017-11-23T22:18:01.155Z,22.63
2017-11-23T22:20:04.476Z,22.63
2017-11-23T22:22:07.818Z,22.63
2017-11-23T22:24:11.142Z,22.63
2017-11-23T22:26:14.444Z,22.62
2017-11-23T22:28:17.765Z,22.63
2017-11-23T22:30:21.161Z,22.63
2017-11-23T22:32:24.461Z,22.63
2017-11-23T22:34:27.781Z,22.62
2017-11-23T22:36:31.071Z,22.62
2017-11-23T22:38:34.357Z,22.62
2017-11-23T22:40:37.718Z,22.62
2017-11-23T22:42:41.067Z,22.62
2017-11-23T22:44:44.372Z,22.61
2017-11-23T22:46:47.684Z,22.61
2017-11-23T22:48:50.973Z,22.62
2017-11-23T22:50:54.266Z,22.61
2017-11-23T22:52:57.577Z,22.61
2017-11-23T22:55:00.954Z,22.61
2017-11-23T22:57:04.337Z,22.60
2017-11-23T22:59:07.896Z,22.60
2017-11-23T23:01:11.240Z,22.59
2017-11-23T23:03:14.531Z,22.59
2017-11-23T23:05:17.910Z,22.59
2017-11-23T23:07:21.300Z,22.58
2017-11-23T23:09:24.648Z,22.59
2017-11-23T23:11:28.021Z,22.58
2017-11-23T23:13:31.334Z,22.58
2017-11-23T23:15:34.762Z,22.58
2017-11-23T23:17:38.078Z,22.58
2017-11-23T23:19:41.374Z,22.57
2017-11-23T23:21:44.678Z,22.56
2017-11-23T23:23:47.997Z,22.57
2017-11-23T23:25:51.288Z,22.57
2017-11-23T23:27:54.622Z,22.56
2017-11-23T23:29:57.989Z,22.56
2017-11-23T23:32:01.381Z,22.57
2017-11-23T23:34:04.678Z,22.57
2017-11-23T23:36:08.028Z,22.57
2017-11-23T23:38:11.301Z,22.56
2017-11-23T23:40:14.604Z,22.57
2017-11-23T23:42:17.916Z,22.56
2017-11-23T23:44:21.263Z,22.56
2017-11-23T23:46:24.573Z,22.55
2017-11-23T23:48:27.876Z,22.55
2017-11-23T23:50:31.173Z,22.56
2017-11-23T23:52:34.468Z,22.55
2017-11-23T23:54:37.781Z,22.55
2017-11-23T23:56:41.086Z,22.55
2017-11-23T23:58:44.378Z,22.55
